Kristoffer Lustig

Chief Scout - Kalmar FF
23 Apr 2028
Sunday
Process

Personality

Adaptability (2) Ambition (2) Controversy (16) Loyalty (1) Pressure (10) Professionalism (2) Sportsmanship (11) Temperament (8)

Profile

Coaching Style Democratic
License Continental A
Determination 7
Man Management 10
Motivating 11
Discipline 11
Job Satisfaction
100%
Fatigue
0%
Role Chief Scout
Wage 38.4K p/w
Contract 14.03.2029

Performance

Behaviour Good
Training Effectiveness
30%
Player Development
20%
Injury Prevention
30%
Tactical Implementation
35%

Recent Events

Attended a recruitment meeting 7d ago
Attended a recruitment meeting 7d ago
Attended a recruitment meeting 14d ago
Attended a recruitment meeting 14d ago
Attended a recruitment meeting 21d ago
Attended a recruitment meeting 21d ago
Attended a recruitment meeting 28d ago
Attended a recruitment meeting 28d ago

Currently Monitoring

122
Player Club Status Ability Confidence Watched Last Observed Latest Vote
Anton Höög Malmo FF Lost 90 / 95 65% 1 01.02.2028 Approve
Oli McBurnie Hull City Active 136 / 127 40% 1 22.02.2027 -
Sam Greenwood Bristol City Active 116 / 125 40% 2 16.02.2027 -
Giacomo Zecca Torres Active 101 / 112 40% 1 16.02.2027 -
Oleh Kozhushko Bukovyna Active 109 / 117 40% 1 30.01.2027 -
Elijah Adebayo Luton Town Active 129 / 122 40% 1 30.01.2027 -
Evidence Makgopa Orlando Pirates Active 104 / 124 40% 1 29.01.2027 -
Aune Heggebø West Bromwich Albion Active 135 / 133 40% 2 28.01.2027 -
Ivan Pakholiuk Kolos Active 106 / 114 40% 2 26.01.2027 -
John McAtee Leyton Orient Active 111 / 106 40% 1 26.01.2027 -
Will Dennis Milton Keynes Dons Active 111 / 105 40% 1 26.01.2027 -
Martin Melichar Pribram Active 90 / 96 40% 1 24.01.2027 -
Leonardo Marson Gubbio Active 107 / 104 40% 1 24.01.2027 -
Giorgi Kvernadze Frosinone Active 132 / 126 40% 2 22.01.2027 -
Sam Nombe Milton Keynes Dons Active 101 / 117 40% 2 21.01.2027 -
Yeangel Montero Naxxar Lions Active 105 / 96 40% 3 18.01.2027 -
Andri Guðjohnsen Blackburn Rovers Active 132 / 116 40% 1 18.01.2027 -
Peter Valjent FK Senica Active 120 / 112 40% 3 17.01.2027 -
Malik Mothersille Stockport County Active 122 / 121 40% 3 16.01.2027 -
Samuel Kalu Botev Plovdiv Active 111 / 111 40% 1 16.01.2027 -
Armstrong Oko-Flex Levski Active 106 / 113 40% 3 15.01.2027 -
Aaron Drinan Swindon Town Active 97 / 105 40% 1 15.01.2027 -
Matty Stevens AFC Wimbledon Active 111 / 100 40% 1 13.01.2027 -
Callum O'Hare Sheffield United Active 131 / 130 40% 1 13.01.2027 -
Francesco D'Alterio Ternana Active 101 / 105 40% 1 11.01.2027 -
Rodrigo Morínigo Debrecen Active 127 / 134 40% 2 06.01.2027 -
Sam Bell Bristol City Active 115 / 114 40% 1 06.01.2027 -
Zach Hemming Chesterfield Active 98 / 102 40% 1 06.01.2027 -
Viktor Johansson Stoke City Active 138 / 127 40% 2 05.01.2027 Needs More Info
Killian Cahill Leyton Orient Active 96 / 107 40% 1 05.01.2027 -
Murphy Cooper Plymouth Argyle Active 121 / 108 40% 1 04.01.2027 Needs More Info
Ilyas Ansah Hull City Active 125 / 140 40% 2 31.12.2026 -
Richard Koné Queens Park Rangers Active 125 / 131 40% 1 31.12.2026 -
Mohamed Konaté Akhmat Grozny Active 107 / 121 40% 2 30.12.2026 -
Vladislav Blănuţă Lechia Active 126 / 121 40% 3 29.12.2026 -
Mohamed-Ali Cho Hull City Active 144 / 133 40% 1 27.12.2026 -
Yousef Salech Cardiff City Active 123 / 123 40% 2 26.12.2026 -
José Martínes CSKA 1948 Active 118 / 113 40% 1 26.12.2026 -
Wandile Duba ASO Chlef Active 94 / 115 40% 1 23.12.2026 -
Bohdan Viunnyk Lechia Active 120 / 102 40% 3 22.12.2026 -
Yurii-Volodymyr Hereta Rukh Active 92 / 102 40% 2 21.12.2026 -
Oleh Bilyk Epicentr Active 97 / 114 40% 2 21.12.2026 -
Vyacheslav Grulev Nizhniy Novgorod Active 114 / 116 40% 1 21.12.2026 -
Patrick Cutrone Monza Active 126 / 123 40% 1 21.12.2026 -
Filip Kubala Banik Ostrava Active 128 / 128 40% 1 17.12.2026 -
Lorent Tolaj Plymouth Argyle Active 125 / 114 40% 1 17.12.2026 -
Nathan Trott Cardiff City Active 116 / 122 40% 1 15.12.2026 -
Luca Gemello Perugia Active 116 / 118 40% 1 10.12.2026 -
Jan Bačkovský Dukla Prague Active 108 / 109 40% 1 10.12.2026 -
Fran Vieites Walsall Active 119 / 117 40% 1 09.12.2026 -
Luka Gavran Toronto FC Active 109 / 115 40% 1 04.12.2026 -
Ondřej Lingr Korona Active 118 / 134 40% 3 02.12.2026 -
Dejan Joveljić Seattle Sounders Active 131 / 122 40% 1 02.12.2026 -
Egas Cacintura Akhmat Grozny Active 116 / 129 40% 1 01.12.2026 -
Jakub Kadák Dukla Prague Active 123 / 107 40% 1 01.12.2026 -
Erick Dolly Black Aces Active 99 / 115 40% 2 30.11.2026 -
Paulos Abraham Hammarby Active 125 / 116 40% 2 30.11.2026 -
Oscar Hedvall Valerenga Active 119 / 113 40% 1 30.11.2026 -
Matej Trusa DAC Dunajska Streda Active 103 / 125 40% 2 27.11.2026 -
Chinedu Geoffrey Krylya Sovetov Active 127 / 118 40% 1 26.11.2026 -
Martin Trnovský Podbrezova Active 113 / 117 40% 1 26.11.2026 -
Stephen Humphrys Bradford City Active 119 / 118 40% 1 24.11.2026 -
Luka Baš Koper Active 90 / 96 40% 1 24.11.2026 -
Timur Kraikov Sokol Active 79 / 102 40% 1 24.11.2026 -
Germán Berterame Inter Miami CF Active 141 / 135 40% 2 21.11.2026 -
Andrii Kozhukhar Veres Active 102 / 104 40% 1 20.11.2026 -
Roman Celentano FC Cincinnati Active 126 / 118 40% 1 20.11.2026 -
Isaac Matondo Koper Active 105 / 116 40% 1 19.11.2026 -
Adam Jakubech MFK Michalovce Active 119 / 106 40% 2 17.11.2026 -
Gladson Amoah Liberty Professionals Active 101 / 88 40% 1 17.11.2026 -
Andrei Vlad Petrolul Active 104 / 99 40% 1 15.11.2026 -
Visar Bekaj Tirana Active 117 / 105 40% 1 14.11.2026 -
Rustam Yatimov Rostov Active 124 / 120 40% 1 14.11.2026 -
Etiosa Ighodaro Kaizer Chiefs Active 114 / 124 40% 2 13.11.2026 -
Luke Southwood Bristol Rovers Active 97 / 112 40% 1 12.11.2026 -
Đorđe Nikolić Cukaricki Active 122 / 110 40% 1 12.11.2026 -
Morgan Guilavogui Real Salt Lake Active 129 / 114 40% 3 09.11.2026 -
David Ankeye Zeleznicar Pancevo Active 105 / 120 40% 1 08.11.2026 -
Sead Hakšabanović Malmo FF Active 116 / 122 40% 1 07.11.2026 -
Lazar Tufegdžić Cukaricki Active 124 / 104 40% 1 06.11.2026 -
Driton Camaj Novi Pazar Active 115 / 103 40% 1 05.11.2026 -
Obilor Okeke Hammarby Active 116 / 124 40% 1 04.11.2026 -
Volodymyr Makhankov Vorskla Active 97 / 85 40% 1 02.11.2026 -
Davor Matijaš HNK Gorica Active 101 / 111 40% 1 02.11.2026 -
Diego García Malmo FF Active 117 / 120 40% 3 01.11.2026 -
Tim Rönning Halmstad Active 118 / 105 40% 1 31.10.2026 -
Abraham Rodriguez AZAL Active 79 / 75 40% 1 31.10.2026 -
David Miculescu FCSB Active 125 / 110 40% 3 28.10.2026 -
Vukašin Bogdanović Radnik Surdulica Active 121 / 104 40% 1 25.10.2026 -
João Valido Chaves Active 116 / 113 40% 1 25.10.2026 -
Kristian Strømland Lien Djurgarden Active 121 / 125 40% 3 22.10.2026 -
Dragan Rosić Vojvodina Active 98 / 114 40% 1 21.10.2026 -
Victor Olatunji Real Salt Lake Active 130 / 120 40% 1 20.10.2026 -
Kwadwo Duah Ludogorets Active 137 / 133 40% 1 18.10.2026 -
Petar Musa FC Dallas Active 128 / 152 40% 4 15.10.2026 -
Brandon Vázquez Austin FC Active 111 / 119 40% 1 14.10.2026 -
Mustapha Sangaré Levski Active 118 / 111 40% 1 13.10.2026 -
Frederik Ihler IF Elfsborg Active 121 / 118 40% 2 12.10.2026 -
Daniel Karlsbakk Sarpsborg 08 Active 117 / 131 40% 1 10.10.2026 -
Tadeo Allende Inter Miami CF Active 125 / 121 40% 1 08.10.2026 -
Mihael Mlinarić Zaglebie Active 106 / 110 40% 1 07.10.2026 -
Albin Andersson Falkenberg Active 98 / 106 40% 1 06.10.2026 -
Omar Faraj Halmstad Active 100 / 112 40% 1 05.10.2026 -
Dávid Ďuriš Rosenborg Active 128 / 120 40% 1 04.10.2026 -
Martín Ojeda Orlando City Active 144 / 141 40% 1 04.10.2026 -
Nathan Ordaz DC United Active 113 / 112 40% 1 30.09.2026 -
Max Fenger Helsingborg Active 131 / 116 40% 1 29.09.2026 -
Wessam Abou Ali Columbus Crew Active 142 / 120 40% 2 26.09.2026 -
Alexander Aravena Portland Timbers Active 113 / 120 40% 1 23.09.2026 -
Krisztofer Horváth Ujpest Active 115 / 102 40% 1 22.09.2026 -
Duncan McGuire Houston Dynamo Active 138 / 112 40% 1 21.09.2026 -
Ajdin Zeljković Halmstad Active 110 / 101 40% 1 20.09.2026 -
Cheikh Sabaly Vancouver Whitecaps Active 119 / 136 40% 1 19.09.2026 -
Petter Nosa Dahl Rapid Wien Active 123 / 127 40% 1 19.09.2026 -
Ramiro Ruiz Rodríguez Atlético Tucumán Active 128 / 115 40% 1 13.09.2026 -
Enes Ünal Getafe Active 131 / 142 40% 1 13.09.2026 -
Dayne St. Clair Inter Miami CF Active 119 / 126 40% 1 13.09.2026 -
Egoitz Arana Real Sociedad Active 107 / 95 40% 1 13.09.2026 -
Kévin Denkey FC Cincinnati Active 112 / 137 40% 1 10.09.2026 -
Diego Enríquez Sporting Cristal Active 115 / 130 40% 1 10.09.2026 -
Erick Mabunda Platinum Stars Active 86 / 79 40% 1 09.09.2026 -
Franco Carretero Deportivo Lara Active 88 / 93 40% 1 09.09.2026 -